Terminal Aerodrome Forecast
Issued by NWS

Home | Current Version | Previous Version | Text Only | Print | Product List | Glossary On
Versions: 1 2 3 4 5 6 7 8 9 10 11 12 13 14 15 16 17 18 19 20 21 22 23 24 25 26 27 28 29 30 31 32 33 34 35
000
FTUS41 KBOX 280537
TAFHYA
TAF
KHYA 280537Z 2806/2906 01010G25KT P6SM OVC030
     FM281300 01016G26KT P6SM OVC020
     FM281600 01015G25KT P6SM SCT045
     FM281900 35012G23KT P6SM FEW200
     FM282300 30010KT P6SM SCT050
     FM290200 30008KT P6SM BKN050=

USA.gov is the U.S. government's official web portal to all federal, state and local government web resources and services.